createdAt,value
2023-05-17T00:00:19.939Z,7.22
2023-05-17T00:02:19.952Z,7.11
2023-05-17T00:04:20.013Z,7.11
2023-05-17T00:05:20.122Z,7.11
2023-05-17T00:07:19.965Z,7.11
2023-05-17T00:08:19.962Z,7.11
2023-05-17T00:10:19.955Z,7.11
2023-05-17T00:11:19.965Z,7.11
2023-05-17T00:13:19.957Z,7.11
2023-05-17T00:14:19.946Z,7.11
2023-05-17T00:15:19.945Z,7.11
2023-05-17T00:17:19.957Z,7.11
2023-05-17T00:18:20.048Z,7.11
2023-05-17T00:19:20.074Z,7.11
2023-05-17T00:20:19.964Z,7.11
2023-05-17T00:21:20.057Z,6.94
2023-05-17T00:23:19.961Z,6.94
2023-05-17T00:24:19.972Z,6.94
2023-05-17T00:26:19.947Z,7.11
2023-05-17T00:27:19.992Z,7.11
2023-05-17T00:28:19.956Z,6.94
2023-05-17T00:30:19.955Z,6.94
2023-05-17T00:32:19.964Z,6.94
2023-05-17T00:33:19.972Z,7.11
2023-05-17T00:34:19.965Z,6.94
2023-05-17T00:35:20.024Z,7.11
2023-05-17T00:36:19.970Z,7.11
2023-05-17T00:37:20.121Z,7.39
2023-05-17T00:39:19.975Z,7.22
2023-05-17T00:41:19.968Z,7.11
2023-05-17T00:42:19.964Z,6.94
2023-05-17T00:43:19.968Z,7.11
2023-05-17T00:45:19.970Z,7.11
2023-05-17T00:46:19.977Z,7.39
2023-05-17T00:48:20.119Z,7.11
2023-05-17T00:49:19.980Z,7.11
2023-05-17T00:50:19.983Z,7.22
2023-05-17T00:52:19.995Z,7.11
2023-05-17T00:53:20.081Z,6.94
2023-05-17T00:55:19.983Z,7.22
2023-05-17T00:57:19.986Z,7.11
2023-05-17T00:58:20.002Z,7.11
2023-05-17T00:59:20.010Z,7.11
2023-05-17T01:00:19.974Z,7.11
2023-05-17T01:01:19.983Z,6.94
2023-05-17T01:02:19.987Z,7.11
2023-05-17T01:04:20.026Z,6.94
2023-05-17T01:06:19.989Z,7.11
2023-05-17T01:07:19.981Z,6.94
2023-05-17T01:08:19.982Z,7.11
2023-05-17T01:09:20.140Z,7.11
2023-05-17T01:11:19.979Z,7.11
2023-05-17T01:12:19.997Z,7.11
2023-05-17T01:13:20.035Z,6.94
2023-05-17T01:14:19.982Z,7.11
2023-05-17T01:15:19.998Z,7.11
2023-05-17T01:17:20.117Z,6.94
2023-05-17T01:18:20.110Z,7.11
2023-05-17T01:19:20.083Z,7.11
2023-05-17T01:20:20.006Z,7.11
2023-05-17T01:21:19.980Z,6.94
2023-05-17T01:22:20.008Z,6.78
2023-05-17T01:24:19.983Z,7.11
2023-05-17T01:25:20.107Z,7.11
2023-05-17T01:27:19.986Z,7.11
2023-05-17T01:28:19.977Z,6.78
2023-05-17T01:29:19.988Z,6.94
2023-05-17T01:30:19.989Z,7.11
2023-05-17T01:31:20.000Z,7.11
2023-05-17T01:33:20.062Z,6.94
2023-05-17T01:34:19.997Z,6.78
2023-05-17T01:35:19.993Z,6.78
2023-05-17T01:37:19.985Z,6.94
2023-05-17T01:39:19.997Z,6.94
2023-05-17T01:41:20.148Z,6.94
2023-05-17T01:43:19.999Z,6.67
2023-05-17T01:44:19.985Z,6.78
2023-05-17T01:45:19.992Z,6.78
2023-05-17T01:47:19.994Z,6.67
2023-05-17T01:48:20.027Z,6.78
2023-05-17T01:49:20.000Z,6.78
2023-05-17T01:50:19.998Z,7.11
2023-05-17T01:51:20.029Z,6.94
2023-05-17T01:52:19.997Z,6.39
2023-05-17T01:53:19.997Z,6.78
2023-05-17T01:54:20.011Z,6.5
2023-05-17T01:55:20.026Z,7.11
2023-05-17T01:56:20.021Z,6.78
2023-05-17T01:57:20.116Z,6.67
2023-05-17T01:59:20.018Z,6.39
2023-05-17T02:00:20.024Z,6.78
2023-05-17T02:02:20.082Z,6.78
2023-05-17T02:03:20.137Z,6.67
2023-05-17T02:04:20.129Z,6.78
2023-05-17T02:06:20.027Z,6.67
2023-05-17T02:08:20.013Z,6.67
2023-05-17T02:09:20.033Z,6.67
2023-05-17T02:10:20.033Z,6.5
2023-05-17T02:11:20.013Z,6.5
2023-05-17T02:12:20.037Z,6.67
2023-05-17T02:13:20.137Z,6.78
2023-05-17T02:15:20.057Z,6.78
2023-05-17T02:16:20.035Z,6.67
2023-05-17T02:17:20.067Z,6.39
2023-05-17T02:18:20.110Z,6.67
2023-05-17T02:19:20.058Z,6.67
2023-05-17T02:20:20.122Z,6.67
2023-05-17T02:21:20.046Z,6.67
2023-05-17T02:22:20.065Z,6.5
2023-05-17T02:23:20.037Z,6.67
2023-05-17T02:24:20.068Z,6.67
2023-05-17T02:25:20.056Z,6.67
2023-05-17T02:26:20.051Z,6.67
2023-05-17T02:27:20.045Z,6.78
2023-05-17T02:28:20.052Z,6.78
2023-05-17T02:29:20.152Z,6.67
2023-05-17T02:31:20.065Z,6.67
2023-05-17T02:32:20.060Z,6.67
2023-05-17T02:33:20.080Z,6.67
2023-05-17T02:34:20.066Z,6.67
2023-05-17T02:35:20.067Z,6.67
2023-05-17T02:36:20.070Z,6.67
2023-05-17T02:37:20.073Z,6.78
2023-05-17T02:39:20.067Z,6.67
2023-05-17T02:40:20.078Z,6.94
2023-05-17T02:42:20.081Z,6.78
2023-05-17T02:43:20.066Z,6.78
2023-05-17T02:44:20.079Z,6.78
2023-05-17T02:45:20.233Z,6.78
2023-05-17T02:47:20.098Z,6.78
2023-05-17T02:49:20.082Z,6.67
2023-05-17T02:51:20.089Z,6.67
2023-05-17T02:52:20.094Z,6.39
2023-05-17T02:54:20.109Z,6.78
2023-05-17T02:55:20.103Z,6.67
2023-05-17T02:56:20.101Z,6.67
2023-05-17T02:57:20.112Z,6.67
2023-05-17T02:58:20.110Z,6.94
2023-05-17T03:00:20.100Z,6.5
2023-05-17T03:01:20.194Z,6.67
2023-05-17T03:03:20.186Z,6.67
2023-05-17T03:04:20.190Z,6.67
2023-05-17T03:06:20.116Z,6.67
2023-05-17T03:07:20.101Z,6.67
2023-05-17T03:08:20.111Z,6.67
2023-05-17T03:09:20.104Z,6.67
2023-05-17T03:10:20.100Z,6.78
2023-05-17T03:12:20.116Z,6.67
2023-05-17T03:13:20.138Z,6.67
2023-05-17T03:14:20.128Z,6.5
2023-05-17T03:16:20.127Z,6.39
2023-05-17T03:17:20.142Z,6.67
2023-05-17T03:19:20.191Z,6.39
2023-05-17T03:21:20.123Z,6.5
2023-05-17T03:22:20.141Z,6.39
2023-05-17T03:24:20.135Z,6.67
2023-05-17T03:26:20.133Z,6.67
2023-05-17T03:28:20.143Z,6.22
2023-05-17T03:29:20.122Z,6.67
2023-05-17T03:30:20.159Z,6.67
2023-05-17T03:31:20.133Z,6.78
2023-05-17T03:32:20.149Z,6.5
2023-05-17T03:33:20.421Z,6.67
2023-05-17T03:35:20.152Z,6.67
2023-05-17T03:36:20.147Z,6.67
2023-05-17T03:37:20.129Z,6.67
2023-05-17T03:38:20.152Z,6.67
2023-05-17T03:40:20.149Z,6.5
2023-05-17T03:42:20.146Z,6.06
2023-05-17T03:43:20.165Z,6.39
2023-05-17T03:44:20.180Z,6.67
2023-05-17T03:45:20.151Z,6.67
2023-05-17T03:46:20.147Z,6.78
2023-05-17T03:47:20.139Z,6.78
2023-05-17T03:48:20.239Z,6.67
2023-05-17T03:49:20.329Z,6.78
2023-05-17T03:51:20.177Z,6.67
2023-05-17T03:52:20.166Z,6.78
2023-05-17T03:54:20.156Z,6.5
2023-05-17T03:55:20.173Z,6.67
2023-05-17T03:56:20.157Z,6.67
2023-05-17T03:57:20.161Z,6.5
2023-05-17T03:58:20.175Z,6.78
2023-05-17T03:59:20.158Z,6.67
2023-05-17T04:00:20.166Z,6.78
2023-05-17T04:01:20.166Z,6.78
2023-05-17T04:02:20.178Z,6.67
2023-05-17T04:03:20.433Z,6.67
2023-05-17T04:04:20.204Z,7.11
2023-05-17T04:05:20.352Z,6.78
2023-05-17T04:07:20.178Z,7.11
2023-05-17T04:08:20.170Z,7.11
2023-05-17T04:10:20.176Z,7.22
2023-05-17T04:11:20.185Z,7.11
2023-05-17T04:13:20.178Z,7.22
2023-05-17T04:14:20.202Z,6.5
2023-05-17T04:16:20.192Z,7.11
2023-05-17T04:17:20.201Z,7.22
2023-05-17T04:18:20.273Z,7.22
2023-05-17T04:20:20.190Z,7.22
2023-05-17T04:21:20.283Z,6.94
2023-05-17T04:23:20.197Z,7.11
2023-05-17T04:24:20.204Z,7.11
2023-05-17T04:26:20.221Z,7.22
2023-05-17T04:27:20.201Z,6.94
2023-05-17T04:28:20.214Z,7.11
2023-05-17T04:29:20.202Z,6.5
2023-05-17T04:30:20.194Z,7.11
2023-05-17T04:32:20.199Z,7.11
2023-05-17T04:33:20.322Z,7.11
2023-05-17T04:34:20.208Z,6.78
2023-05-17T04:35:20.195Z,7.11
2023-05-17T04:36:20.203Z,7.11
2023-05-17T04:37:20.355Z,6.94
2023-05-17T04:39:20.220Z,7.11
2023-05-17T04:41:20.222Z,7.11
2023-05-17T04:42:20.224Z,6.94
2023-05-17T04:43:20.216Z,7.22
2023-05-17T04:45:20.231Z,7.39
2023-05-17T04:47:20.217Z,7.22
2023-05-17T04:48:20.309Z,7.5
2023-05-17T04:49:20.213Z,7.5
2023-05-17T04:50:20.214Z,7.22
2023-05-17T04:51:20.223Z,6.94
2023-05-17T04:52:20.234Z,7.22
2023-05-17T04:53:20.501Z,7.22
2023-05-17T04:55:20.226Z,7.22
2023-05-17T04:56:20.222Z,7.22
2023-05-17T04:57:20.223Z,7.22
2023-05-17T04:58:20.240Z,7.39
2023-05-17T04:59:20.231Z,7.39
2023-05-17T05:00:20.240Z,7.39
2023-05-17T05:01:20.227Z,7.22
2023-05-17T05:02:20.240Z,7.39
2023-05-17T05:03:20.256Z,6.94
2023-05-17T05:04:20.297Z,7.22
2023-05-17T05:06:20.244Z,7.11
2023-05-17T05:07:20.255Z,7.11
2023-05-17T05:09:20.364Z,7.11
2023-05-17T05:11:20.263Z,6.94
2023-05-17T05:12:20.239Z,7.11
2023-05-17T05:13:20.244Z,7.11
2023-05-17T05:14:20.250Z,7.11
2023-05-17T05:15:20.248Z,7.22
2023-05-17T05:16:20.241Z,7.11
2023-05-17T05:17:20.378Z,7.11
2023-05-17T05:18:20.386Z,7.22
2023-05-17T05:19:20.370Z,7.11
2023-05-17T05:20:20.271Z,7.11
2023-05-17T05:21:20.244Z,7.11
2023-05-17T05:22:20.249Z,7.39
2023-05-17T05:24:20.247Z,7.39
2023-05-17T05:25:20.404Z,7.39
2023-05-17T05:27:20.246Z,7.78
2023-05-17T05:28:20.255Z,7.78
2023-05-17T05:29:20.248Z,7.5
2023-05-17T05:30:20.252Z,7.5
2023-05-17T05:31:20.265Z,7.5
2023-05-17T05:32:20.247Z,7.67
2023-05-17T05:33:20.312Z,7.5
2023-05-17T05:34:20.247Z,7.5
2023-05-17T05:35:20.269Z,7.22
2023-05-17T05:36:20.270Z,7.5
2023-05-17T05:38:20.277Z,7.94
2023-05-17T05:39:20.257Z,7.94
2023-05-17T05:40:20.255Z,8.5
2023-05-17T05:41:20.458Z,8.11
2023-05-17T05:43:20.269Z,7.5
2023-05-17T05:44:20.276Z,7.5
2023-05-17T05:45:20.305Z,7.5
2023-05-17T05:47:20.268Z,7.11
2023-05-17T05:49:20.266Z,7.22
2023-05-17T05:50:20.267Z,7.11
2023-05-17T05:51:22.551Z,7.5
2023-05-17T05:52:20.265Z,7.22
2023-05-17T05:53:20.274Z,7.39
2023-05-17T05:54:20.282Z,7.39
2023-05-17T05:55:20.291Z,7.22
2023-05-17T05:56:20.279Z,7.5
2023-05-17T05:57:20.300Z,7.39
2023-05-17T05:59:20.264Z,7.39
2023-05-17T06:00:20.276Z,7.39
2023-05-17T06:01:20.280Z,7.22
2023-05-17T06:03:20.289Z,7.11
2023-05-17T06:04:22.705Z,7.39
2023-05-17T06:06:20.327Z,7.11
2023-05-17T06:08:20.286Z,7.5
2023-05-17T06:09:20.278Z,7.11
2023-05-17T06:10:20.303Z,7.22
2023-05-17T06:12:20.295Z,7.11
2023-05-17T06:13:20.569Z,7.22
2023-05-17T06:15:20.302Z,7.22
2023-05-17T06:17:20.321Z,6.94
2023-05-17T06:18:20.358Z,7.11
2023-05-17T06:20:20.287Z,7.11
2023-05-17T06:21:20.305Z,6.67
2023-05-17T06:23:20.298Z,7.11
2023-05-17T06:24:20.297Z,7.11
2023-05-17T06:27:20.298Z,7.11
2023-05-17T06:28:20.297Z,7.11
2023-05-17T06:29:20.399Z,7.11
2023-05-17T06:30:20.293Z,7.22
2023-05-17T06:31:21.178Z,7.11
2023-05-17T06:32:20.299Z,7.11
2023-05-17T06:33:20.356Z,6.94
2023-05-17T06:34:20.295Z,7.11
2023-05-17T06:35:20.300Z,7.39
2023-05-17T06:36:20.289Z,7.22
2023-05-17T06:37:20.299Z,7.11
2023-05-17T06:38:20.290Z,7.11
2023-05-17T06:39:20.295Z,7.39
2023-05-17T06:41:20.348Z,7.22
2023-05-17T06:42:20.296Z,7.22
2023-05-17T06:43:20.307Z,7.22
2023-05-17T06:44:20.302Z,7.22
2023-05-17T06:45:20.395Z,7.22
2023-05-17T06:47:20.317Z,7.39
2023-05-17T06:49:20.302Z,6.94
2023-05-17T06:50:20.294Z,6.94
2023-05-17T06:51:20.308Z,6.94
2023-05-17T06:53:20.303Z,7.11
2023-05-17T06:54:20.323Z,7.11
2023-05-17T06:55:20.343Z,7.11
2023-05-17T06:56:20.319Z,7.11
2023-05-17T06:57:20.303Z,7.11
2023-05-17T06:59:20.298Z,7.11
2023-05-17T07:00:20.307Z,6.78
2023-05-17T07:01:20.472Z,7.11
2023-05-17T07:03:20.336Z,7.11
2023-05-17T07:06:20.393Z,7.39
2023-05-17T07:07:20.320Z,7.11
2023-05-17T07:08:20.329Z,6.94
2023-05-17T07:09:20.309Z,7.11
2023-05-17T07:10:20.313Z,7.11
2023-05-17T07:11:20.334Z,6.94
2023-05-17T07:12:20.344Z,7.5
2023-05-17T07:14:20.312Z,7.39
2023-05-17T07:15:20.325Z,7.22
2023-05-17T07:16:20.346Z,7.39
2023-05-17T07:17:20.437Z,7.22
2023-05-17T07:19:20.398Z,7.11
2023-05-17T07:21:20.342Z,6.94
2023-05-17T07:22:20.336Z,7.11
2023-05-17T07:23:20.345Z,7.22
2023-05-17T07:24:20.345Z,7.5
2023-05-17T07:26:20.338Z,7.22
2023-05-17T07:27:20.342Z,6.94
2023-05-17T07:28:20.354Z,7.22
2023-05-17T07:30:20.362Z,7.11
2023-05-17T07:31:20.380Z,7.39
2023-05-17T07:33:20.475Z,7.39
2023-05-17T07:35:21.887Z,7.22
2023-05-17T07:36:20.368Z,6.94
2023-05-17T07:37:20.351Z,7.11
2023-05-17T07:38:20.547Z,6.94
2023-05-17T07:39:20.391Z,7.11
2023-05-17T07:40:20.352Z,7.22
2023-05-17T07:41:20.357Z,7.39
2023-05-17T07:42:20.374Z,7.39
2023-05-17T07:43:20.373Z,6.94
2023-05-17T07:45:20.387Z,6.67
2023-05-17T07:46:20.360Z,7.11
2023-05-17T07:47:21.376Z,6.78
2023-05-17T07:48:20.461Z,6.78
2023-05-17T07:49:20.689Z,6.67
2023-05-17T07:51:20.381Z,6.94
2023-05-17T07:53:20.377Z,6.67
2023-05-17T07:54:20.377Z,6.39
2023-05-17T07:55:20.380Z,6.67
2023-05-17T07:56:20.396Z,6.5
2023-05-17T07:57:20.395Z,6.67
2023-05-17T07:58:20.596Z,6.5
2023-05-17T07:59:20.396Z,6.5
2023-05-17T08:00:20.393Z,6.94
2023-05-17T08:01:20.392Z,6.78
2023-05-17T08:02:20.419Z,6.67
2023-05-17T08:03:20.392Z,6.67
2023-05-17T08:05:20.439Z,6.67
2023-05-17T08:06:20.413Z,6.67
2023-05-17T08:07:20.396Z,6.67
2023-05-17T08:08:20.384Z,6.67
2023-05-17T08:09:20.390Z,6.39
2023-05-17T08:10:20.378Z,6.78
2023-05-17T08:11:20.385Z,6.94
2023-05-17T08:13:20.391Z,6.67
2023-05-17T08:14:20.397Z,6.5
2023-05-17T08:16:21.404Z,6.22
2023-05-17T08:17:20.403Z,6.5
2023-05-17T08:18:20.479Z,6.5
2023-05-17T08:20:20.397Z,6.78
2023-05-17T08:21:20.420Z,6.67
2023-05-17T08:23:20.401Z,6.39
2023-05-17T08:24:20.403Z,6.78
2023-05-17T08:25:20.423Z,6.94
2023-05-17T08:26:20.405Z,6.78
2023-05-17T08:27:20.427Z,6.78
2023-05-17T08:28:20.422Z,6.94
2023-05-17T08:29:20.403Z,6.5
2023-05-17T08:30:28.738Z,6.67
2023-05-17T08:32:20.415Z,7.11
2023-05-17T08:34:20.415Z,6.94
2023-05-17T08:36:20.409Z,7.11
2023-05-17T08:37:20.470Z,7.11
2023-05-17T08:39:20.436Z,7.11
2023-05-17T08:40:20.543Z,7.11
2023-05-17T08:41:20.417Z,6.94
2023-05-17T08:42:20.408Z,7.11
2023-05-17T08:43:20.406Z,6.78
2023-05-17T08:44:20.417Z,7.11
2023-05-17T08:45:20.410Z,6.94
2023-05-17T08:47:20.440Z,6.78
2023-05-17T08:48:20.481Z,6.94
2023-05-17T08:49:20.588Z,6.94
2023-05-17T08:51:20.455Z,7.11
2023-05-17T08:52:20.423Z,7.11
2023-05-17T08:53:20.465Z,7.11
2023-05-17T08:55:20.427Z,6.94
2023-05-17T08:56:20.427Z,7.11
2023-05-17T08:57:20.440Z,6.94
2023-05-17T08:59:20.434Z,7.11
2023-05-17T09:00:20.449Z,6.94
2023-05-17T09:01:20.510Z,7.11
2023-05-17T09:02:20.480Z,6.94
2023-05-17T09:03:20.544Z,7.22
2023-05-17T09:04:20.475Z,6.94
2023-05-17T09:05:20.507Z,7.11
2023-05-17T09:06:20.453Z,7.5
2023-05-17T09:08:20.449Z,7.94
2023-05-17T09:09:20.493Z,7.67
2023-05-17T09:11:20.469Z,7.5
2023-05-17T09:12:20.445Z,6.94
2023-05-17T09:13:20.464Z,7.5
2023-05-17T09:14:20.442Z,7.5
2023-05-17T09:15:20.477Z,7.5
2023-05-17T09:17:20.462Z,7.5
2023-05-17T09:18:20.567Z,7.67
2023-05-17T09:19:20.526Z,7.5
2023-05-17T09:20:20.546Z,7.11
2023-05-17T09:21:20.477Z,7.22
2023-05-17T09:22:20.476Z,7.22
2023-05-17T09:24:20.469Z,7.11
2023-05-17T09:25:20.511Z,7.22
2023-05-17T09:27:20.467Z,7.5
2023-05-17T09:28:20.474Z,7.5
2023-05-17T09:29:20.485Z,7.22
2023-05-17T09:30:20.573Z,7.22
2023-05-17T09:31:20.481Z,7.22
2023-05-17T09:32:20.475Z,7.39
2023-05-17T09:33:20.492Z,7.39
2023-05-17T09:35:20.482Z,7.39
2023-05-17T09:36:20.474Z,7.22
2023-05-17T09:37:20.474Z,7.39
2023-05-17T09:38:20.469Z,7.39
2023-05-17T09:40:20.521Z,7.22
2023-05-17T09:41:20.622Z,7.5
2023-05-17T09:42:20.472Z,7.67
2023-05-17T09:43:20.488Z,7.67
2023-05-17T09:44:20.475Z,7.94
2023-05-17T09:45:20.555Z,7.78
2023-05-17T09:46:20.510Z,7.67
2023-05-17T09:47:20.559Z,7.67
2023-05-17T09:48:20.594Z,7.39
2023-05-17T09:49:20.482Z,7.5
2023-05-17T09:50:20.539Z,7.67
2023-05-17T09:51:20.480Z,7.39
2023-05-17T09:52:20.486Z,7.5
2023-05-17T09:53:20.499Z,7.78
2023-05-17T09:55:20.484Z,7.5
2023-05-17T09:56:20.506Z,7.67
2023-05-17T09:57:20.542Z,7.94
2023-05-17T09:59:20.508Z,7.78
2023-05-17T10:00:20.517Z,7.78
2023-05-17T10:01:20.496Z,7.5
2023-05-17T10:02:20.504Z,7.78
2023-05-17T10:03:20.536Z,7.94
2023-05-17T10:04:20.629Z,7.94
2023-05-17T10:06:33.102Z,7.94
2023-05-17T10:08:20.506Z,7.5
2023-05-17T10:09:20.516Z,7.5
2023-05-17T10:10:20.509Z,7.78
2023-05-17T10:12:20.503Z,7.67
2023-05-17T10:13:20.590Z,7.94
2023-05-17T10:14:20.529Z,7.94
2023-05-17T10:15:20.502Z,7.78
2023-05-17T10:16:20.525Z,7.5
2023-05-17T10:17:20.516Z,7.78
2023-05-17T10:18:20.587Z,7.94
2023-05-17T10:19:20.591Z,7.78
2023-05-17T10:21:20.545Z,7.94
2023-05-17T10:22:23.556Z,7.78
2023-05-17T10:23:20.528Z,7.94
2023-05-17T10:25:20.516Z,7.94
2023-05-17T10:26:20.513Z,7.94
2023-05-17T10:27:20.525Z,7.94
2023-05-17T10:29:20.629Z,7.78
2023-05-17T10:31:20.545Z,7.67
2023-05-17T10:32:20.657Z,7.78
2023-05-17T10:33:20.635Z,7.78
2023-05-17T10:34:20.650Z,7.78
2023-05-17T10:35:20.536Z,7.94
2023-05-17T10:36:20.531Z,7.39
2023-05-17T10:38:22.051Z,7.39
2023-05-17T10:40:20.557Z,7.94
2023-05-17T10:41:20.518Z,8.28
2023-05-17T10:42:20.549Z,8.11
2023-05-17T10:44:20.558Z,7.94
2023-05-17T10:45:20.606Z,7.94
2023-05-17T10:47:20.536Z,7.94
2023-05-17T10:49:24.389Z,7.78
2023-05-17T10:50:20.532Z,7.78
2023-05-17T10:51:20.541Z,7.94
2023-05-17T10:52:20.557Z,7.94
2023-05-17T10:53:20.539Z,7.5
2023-05-17T10:54:20.531Z,7.67
2023-05-17T10:55:20.551Z,7.67
2023-05-17T10:57:20.548Z,7.78
2023-05-17T10:59:20.543Z,7.39
2023-05-17T11:00:20.576Z,7.67
2023-05-17T11:01:20.681Z,7.67
2023-05-17T11:03:20.578Z,7.67
2023-05-17T11:04:20.577Z,7.11
2023-05-17T11:05:20.553Z,7.5
2023-05-17T11:06:24.789Z,7.22
2023-05-17T11:08:20.541Z,7.67
2023-05-17T11:09:20.558Z,7.94
2023-05-17T11:10:20.561Z,7.67
2023-05-17T11:12:20.553Z,7.5
2023-05-17T11:14:20.556Z,7.39
2023-05-17T11:15:20.544Z,7.67
2023-05-17T11:16:20.548Z,7.94
2023-05-17T11:17:20.575Z,7.78
2023-05-17T11:18:29.981Z,7.22
2023-05-17T11:19:20.612Z,7.11
2023-05-17T11:20:20.669Z,7.39
2023-05-17T11:21:20.566Z,7.22
2023-05-17T11:22:20.549Z,7.22
2023-05-17T11:23:20.566Z,7.22
2023-05-17T11:24:22.241Z,7.5
2023-05-17T11:25:20.558Z,7.5
2023-05-17T11:27:20.565Z,7.22
2023-05-17T11:28:20.569Z,7.5
2023-05-17T11:29:20.567Z,7.39
2023-05-17T11:30:20.578Z,7.39
2023-05-17T11:31:20.566Z,7.39
2023-05-17T11:33:32.671Z,7.67
2023-05-17T11:35:20.573Z,7.22
2023-05-17T11:37:20.586Z,7.94
2023-05-17T11:39:20.566Z,7.67
2023-05-17T11:40:20.572Z,7.5
2023-05-17T11:42:20.586Z,7.39
2023-05-17T11:43:20.573Z,7.67
2023-05-17T11:45:21.135Z,7.67
2023-05-17T11:46:20.570Z,7.78
2023-05-17T11:47:20.614Z,7.94
2023-05-17T11:48:20.808Z,7.5
2023-05-17T11:49:33.806Z,7.78
2023-05-17T11:51:22.785Z,7.67
2023-05-17T11:52:20.575Z,7.5
2023-05-17T11:53:20.578Z,7.5
2023-05-17T11:54:20.587Z,7.11
2023-05-17T11:56:22.223Z,7.5
2023-05-17T11:57:20.578Z,7.5
2023-05-17T11:59:20.588Z,7.78
2023-05-17T12:01:20.602Z,7.39
2023-05-17T12:02:20.589Z,7.5
2023-05-17T12:04:20.594Z,7.78
2023-05-17T12:05:20.617Z,7.22
2023-05-17T12:07:20.585Z,7.78
2023-05-17T12:09:20.586Z,7.78
2023-05-17T12:10:20.578Z,7.94
2023-05-17T12:11:20.582Z,7.94
2023-05-17T12:12:20.726Z,7.94
2023-05-17T12:13:20.590Z,7.5
2023-05-17T12:15:20.594Z,7.5
2023-05-17T12:16:20.574Z,7.94
2023-05-17T12:17:20.576Z,7.78
2023-05-17T12:18:20.768Z,7.94
2023-05-17T12:20:20.630Z,7.67
2023-05-17T12:21:20.640Z,7.78
2023-05-17T12:22:20.577Z,7.78
2023-05-17T12:23:20.594Z,7.5
2023-05-17T12:24:20.638Z,7.94
2023-05-17T12:25:20.581Z,8.28
2023-05-17T12:26:20.583Z,8.11
2023-05-17T12:27:20.596Z,7.94
2023-05-17T12:28:20.590Z,8.28
2023-05-17T12:30:20.601Z,8.28
2023-05-17T12:32:20.583Z,8.11
2023-05-17T12:33:20.826Z,8.11
2023-05-17T12:34:20.597Z,8.28
2023-05-17T12:35:20.606Z,7.94
2023-05-17T12:36:20.588Z,8.11
2023-05-17T12:37:20.687Z,7.94
2023-05-17T12:38:20.587Z,7.94
2023-05-17T12:39:20.590Z,7.67
2023-05-17T12:40:20.618Z,7.94
2023-05-17T12:41:20.609Z,7.5
2023-05-17T12:42:20.614Z,7.67
2023-05-17T12:43:20.591Z,7.78
2023-05-17T12:44:20.603Z,7.94
2023-05-17T12:46:20.666Z,7.5
2023-05-17T12:47:20.592Z,7.78
2023-05-17T12:48:20.628Z,8.28
2023-05-17T12:49:20.649Z,8.11
2023-05-17T12:50:20.622Z,7.94
2023-05-17T12:51:20.621Z,7.39
2023-05-17T12:53:20.657Z,7.5
2023-05-17T12:54:20.604Z,7.5
2023-05-17T12:55:20.636Z,7.78
2023-05-17T12:56:20.625Z,7.78
2023-05-17T12:57:20.606Z,7.94
2023-05-17T12:58:20.638Z,7.94
2023-05-17T12:59:20.625Z,7.94
2023-05-17T13:00:20.620Z,7.11
2023-05-17T13:01:20.619Z,7.22
2023-05-17T13:02:20.706Z,7.78
2023-05-17T13:03:20.783Z,8.28
2023-05-17T13:04:20.645Z,7.94
2023-05-17T13:05:20.622Z,8.28
2023-05-17T13:06:20.622Z,8.28
2023-05-17T13:07:20.627Z,8.28
2023-05-17T13:08:20.628Z,7.94
2023-05-17T13:09:20.677Z,7.5
2023-05-17T13:11:20.638Z,7.39
2023-05-17T13:12:20.630Z,7.5
2023-05-17T13:13:20.660Z,7.39
2023-05-17T13:14:20.642Z,7.22
2023-05-17T13:15:20.644Z,7.5
2023-05-17T13:16:20.726Z,7.22
2023-05-17T13:17:20.696Z,7.5
2023-05-17T13:18:20.822Z,7.39
2023-05-17T13:19:20.765Z,7.5
2023-05-17T13:21:20.663Z,7.22
2023-05-17T13:23:20.679Z,7.22
2023-05-17T13:24:20.673Z,7.39
2023-05-17T13:25:20.735Z,7.11
2023-05-17T13:27:20.650Z,7.11
2023-05-17T13:29:25.555Z,7.5
2023-05-17T13:30:20.670Z,7.39
2023-05-17T13:32:20.674Z,6.94
2023-05-17T13:33:20.790Z,6.78
2023-05-17T13:34:20.675Z,7.22
2023-05-17T13:35:20.659Z,7.5
2023-05-17T13:36:20.664Z,7.22
2023-05-17T13:37:20.653Z,7.22
2023-05-17T13:38:20.661Z,7.39
2023-05-17T13:39:20.680Z,7.39
2023-05-17T13:40:20.663Z,7.67
2023-05-17T13:41:20.773Z,7.39
2023-05-17T13:43:20.727Z,7.39
2023-05-17T13:45:20.667Z,7.22
2023-05-17T13:46:20.688Z,7.11
2023-05-17T13:49:20.763Z,6.94
2023-05-17T13:50:20.666Z,6.67
2023-05-17T13:51:20.664Z,6.67
2023-05-17T13:53:20.678Z,7.11
2023-05-17T13:54:20.774Z,7.11
2023-05-17T13:55:20.683Z,7.11
2023-05-17T13:56:20.672Z,7.11
2023-05-17T13:57:20.696Z,7.11
2023-05-17T13:59:20.692Z,7.5
2023-05-17T14:00:20.660Z,7.67
2023-05-17T14:01:20.676Z,7.78
2023-05-17T14:03:20.777Z,7.5
2023-05-17T14:04:20.673Z,7.39
2023-05-17T14:05:20.680Z,7.22
2023-05-17T14:06:20.897Z,7.11
2023-05-17T14:07:20.676Z,6.94
2023-05-17T14:08:20.663Z,7.5
2023-05-17T14:09:20.693Z,7.22
2023-05-17T14:10:20.671Z,7.5
2023-05-17T14:11:20.673Z,7.39
2023-05-17T14:12:20.673Z,7.39
2023-05-17T14:13:20.745Z,7.22
2023-05-17T14:15:20.689Z,7.5
2023-05-17T14:16:20.670Z,7.5
2023-05-17T14:17:20.679Z,7.67
2023-05-17T14:19:20.743Z,7.67
2023-05-17T14:20:20.674Z,7.39
2023-05-17T14:21:20.697Z,6.94
2023-05-17T14:22:20.696Z,7.78
2023-05-17T14:24:20.690Z,7.22
2023-05-17T14:26:20.694Z,7.11
2023-05-17T14:27:20.695Z,7.22
2023-05-17T14:29:20.745Z,7.94
2023-05-17T14:31:20.697Z,7.78
2023-05-17T14:33:20.803Z,7.94
2023-05-17T14:34:20.751Z,7.94
2023-05-17T14:35:20.686Z,8.11
2023-05-17T14:36:20.685Z,7.78
2023-05-17T14:37:20.700Z,7.67
2023-05-17T14:38:20.694Z,7.5
2023-05-17T14:39:20.719Z,7.5
2023-05-17T14:40:20.687Z,7.5
2023-05-17T14:41:20.699Z,7.5
2023-05-17T14:42:20.687Z,7.94
2023-05-17T14:43:20.704Z,7.94
2023-05-17T14:45:20.729Z,7.94
2023-05-17T14:47:20.705Z,7.94
2023-05-17T14:48:20.769Z,7.94
2023-05-17T14:50:20.711Z,7.78
2023-05-17T14:51:20.703Z,8.28
2023-05-17T14:52:20.712Z,8.28
2023-05-17T14:54:20.700Z,7.94
2023-05-17T14:55:20.713Z,8.39
2023-05-17T14:57:20.722Z,7.78
2023-05-17T14:58:20.696Z,7.78
2023-05-17T15:00:20.726Z,7.78
2023-05-17T15:01:20.804Z,7.94
2023-05-17T15:03:22.248Z,7.78
2023-05-17T15:05:20.829Z,7.5
2023-05-17T15:06:20.716Z,8.39
2023-05-17T15:08:20.719Z,8.11
2023-05-17T15:09:20.694Z,8.28
2023-05-17T15:10:20.734Z,8.11
2023-05-17T15:11:20.709Z,8.39
2023-05-17T15:12:20.747Z,8.39
2023-05-17T15:14:20.707Z,8.39
2023-05-17T15:16:20.738Z,8.39
2023-05-17T15:17:20.764Z,8.5
2023-05-17T15:18:20.712Z,8.39
2023-05-17T15:19:20.840Z,8.5
2023-05-17T15:20:20.795Z,8.39
2023-05-17T15:22:20.717Z,8.11
2023-05-17T15:23:20.707Z,8.61
2023-05-17T15:24:20.719Z,8.39
2023-05-17T15:25:20.721Z,8.11
2023-05-17T15:26:20.710Z,8.5
2023-05-17T15:27:20.717Z,7.67
2023-05-17T15:28:20.722Z,8.39
2023-05-17T15:29:20.716Z,7.78
2023-05-17T15:30:20.717Z,8.39
2023-05-17T15:31:20.735Z,8.39
2023-05-17T15:32:20.747Z,8.61
2023-05-17T15:33:20.851Z,8.5
2023-05-17T15:35:20.725Z,8.5
2023-05-17T15:36:20.733Z,8.78
2023-05-17T15:37:20.717Z,8.78
2023-05-17T15:38:20.730Z,8.78
2023-05-17T15:40:20.722Z,8.78
2023-05-17T15:41:20.734Z,8.28
2023-05-17T15:43:20.728Z,8.61
2023-05-17T15:44:20.729Z,8.78
2023-05-17T15:45:20.742Z,8.5
2023-05-17T15:46:20.741Z,8.5
2023-05-17T15:48:20.802Z,8.11
2023-05-17T15:49:20.887Z,8.39
2023-05-17T15:50:20.723Z,8.28
2023-05-17T15:51:20.727Z,8.39
2023-05-17T15:53:20.741Z,8.39
2023-05-17T15:54:20.731Z,8.28
2023-05-17T15:55:20.719Z,8.28
2023-05-17T15:56:20.747Z,7.78
2023-05-17T15:57:20.725Z,8.5
2023-05-17T15:58:20.733Z,8.11
2023-05-17T16:00:20.723Z,8.39
2023-05-17T16:01:20.736Z,8.39
2023-05-17T16:02:20.736Z,8.39
2023-05-17T16:04:20.773Z,8.11
2023-05-17T16:05:20.771Z,7.94
2023-05-17T16:07:20.729Z,8.11
2023-05-17T16:09:20.730Z,8.39
2023-05-17T16:11:20.742Z,8.39
2023-05-17T16:13:20.757Z,8.39
2023-05-17T16:15:20.730Z,8.11
2023-05-17T16:16:20.740Z,8.39
2023-05-17T16:17:20.732Z,8.28
2023-05-17T16:18:20.747Z,8.28
2023-05-17T16:19:20.775Z,8.39
2023-05-17T16:20:20.731Z,7.78
2023-05-17T16:21:20.770Z,7.94
2023-05-17T16:23:20.750Z,7.94
2023-05-17T16:25:20.742Z,8.11
2023-05-17T16:26:20.732Z,8.28
2023-05-17T16:27:20.748Z,8.11
2023-05-17T16:29:20.736Z,8.11
2023-05-17T16:30:20.729Z,8.28
2023-05-17T16:31:20.796Z,8.28
2023-05-17T16:32:20.731Z,7.94
2023-05-17T16:33:20.873Z,7.94
2023-05-17T16:34:20.801Z,7.78
2023-05-17T16:36:20.730Z,7.94
2023-05-17T16:37:20.790Z,8.11
2023-05-17T16:39:20.742Z,7.94
2023-05-17T16:41:20.732Z,7.94
2023-05-17T16:42:20.746Z,7.67
2023-05-17T16:43:20.740Z,7.78
2023-05-17T16:44:20.738Z,8.11
2023-05-17T16:45:20.738Z,7.94
2023-05-17T16:46:20.741Z,7.78
2023-05-17T16:48:20.798Z,7.78
2023-05-17T16:49:20.787Z,7.94
2023-05-17T16:50:20.731Z,7.67
2023-05-17T16:51:20.757Z,7.94
2023-05-17T16:52:20.759Z,7.94
2023-05-17T16:53:20.770Z,7.78
2023-05-17T16:55:20.781Z,7.94
2023-05-17T16:56:20.742Z,7.94
2023-05-17T16:57:20.750Z,7.78
2023-05-17T16:58:20.756Z,8.11
2023-05-17T17:00:20.748Z,7.78
2023-05-17T17:01:20.735Z,7.94